• Join FlightAware (Why Join?)
  • Login
  • US Flag 
12:46AM EDT


 

Airport Tracker/Info


-or-


 

Live Flight TrackerFlight Track Log ✈ SKW7426 ✈ 03-May-2013 ✈ KMSP - KINL

Flight Track Log - Related Links

Times and Time Zones

All times are in EDT time to prevent confusion due to time zone crossing. See the SKW7426 flight status page for this flight to view local times or setup timezone preferences in your user account.

Time Position Orientation Groundspeed Altitude Reporting Facility
EDT Latitude Longitude Course Direction KTS MPH feet Rate Location/Type
12:43PM 44.9333 -93.2667 North 206 237 4,000  Level Minneapolis TRACON
12:45PM 45.2282 -93.3667 North  Level FlightAware Approximate
12:45PM 45.0008 -93.2914 345° North 248 285 6,900  Level Minneapolis Center
12:46PM 45.3558 -93.3667 North  Level FlightAware Approximate
12:46PM 45.0675 -93.2789 North 246 283 7,000  Level Minneapolis Center
12:47PM 45.4834 -93.3667 North  Level FlightAware Approximate
12:47PM 45.1500 -93.2336 21° North 280 322 9,300  Level Minneapolis Center
12:48PM 45.6110 -93.3667 North  Level FlightAware Approximate
12:48PM 45.2386 -93.2394 357° North 325 374 11,000  Level Minneapolis Center
12:49PM 45.3411 -93.2439 358° North 369 425 13,200 2,040 Climbing Minneapolis Center
12:50PM 45.4475 -93.2486 358° North 385 443 15,300 1,860 Climbing Minneapolis Center
12:51PM 45.5569 -93.2544 358° North 395 455 17,100 1,560 Climbing Minneapolis Center
12:52PM 45.6694 -93.2586 359° North 405 466 18,500 1,440 Climbing Minneapolis Center
12:53PM 45.7844 -93.2661 357° North 411 473 20,100 1,680 Climbing Minneapolis Center
12:54PM 45.9283 -93.2728 358° North 429 494 22,000 1,260 Climbing Minneapolis Center
12:55PM 46.0519 -93.2767 359° North 442 509 22,700 1,020 Climbing Minneapolis Center
12:56PM 46.1789 -93.2836 358° North 453 521 24,200 1,140 Climbing Minneapolis Center
12:57PM 46.3192 -93.2903 358° North 460 529 25,100 900 Climbing Minneapolis Center
12:58PM 46.4514 -93.2969 358° North 471 542 26,100 840 Climbing Minneapolis Center
12:59PM 46.5856 -93.3047 358° North 482 555 26,900 900 Climbing Minneapolis Center
01:00PM 46.7206 -93.3122 358° North 485 558 28,000 480 Climbing Minneapolis Center
01:01PM 46.8592 -93.3181 358° North 496 571 28,000  Level Minneapolis Center
01:02PM 47.0022 -93.3236 358° North 510 587 28,000  Level Minneapolis Center
01:03PM 47.1461 -93.3317 358° North 515 593 28,000 -900 Level Minneapolis Center
01:04PM 47.2928 -93.3383 358° North 519 597 26,200 -2,340 Descending Minneapolis Center
01:05PM 47.4325 -93.3478 357° North 495 570 23,300 -2,760 Descending Minneapolis Center
01:06PM 47.5606 -93.3522 359° North 462 532 20,500 -2,760 Descending Minneapolis Center
01:07PM 47.7047 -93.3592 358° North 445 512 17,700 -2,760 Descending Minneapolis Center
01:08PM 47.8194 -93.3650 358° North 429 494 14,900 -2,280 Descending Minneapolis Center
01:09PM 47.9272 -93.3711 358° North 409 471 13,000 -1,800 Descending Minneapolis Center
01:10PM 48.0164 -93.3764 358° North 354 407 11,300 -1,620 Descending Minneapolis Center
01:11PM 48.1006 -93.3800 358° North 325 374 9,700 -1,500 Descending Minneapolis Center
01:12PM 48.1750 -93.3831 358° North 296 341 8,300 -1,380 Descending Minneapolis Center
01:13PM 48.2464 -93.3858 359° North 274 315 6,900 -1,380 Descending Minneapolis Center
01:14PM 48.3164 -93.3806 North 262 302 5,500 -1,320 Descending Minneapolis Center
01:15PM 48.3933 -93.3464 16° North 248 285 4,200 -1,140 Descending Minneapolis Center
01:16PM 48.4497 -93.3231 15° North 231 266 3,200 -720 Descending Minneapolis Center
01:17PM 48.4944 -93.3083 12° North 216 249 2,800 -420 Descending Minneapolis Center
01:19PM 48.5500 -93.4000 North  Level FlightAware Approximate
01:26PM 48.5656 -93.4022 North  Level Estimated